Time;durP1;ratioP1;P1;durP2;ratioP2;P2;SDS_P1;SDS_P2;PMS_P1;PMS_P2;Temp;Humidity;BMP_temperature;BMP_pressure;BME280_temperature;BME280_humidity;BME280_pressure;Samples;Min_cycle;Max_cycle;Signal;HPM_P1;HPM_P2
2024/04/18 00:02:06;;;;;;;;;;;5.80;99.90;;;;;;5525698;25;20364;-70
2024/04/18 00:04:32;;;;;;;;;;;5.80;99.90;;;;;;5525778;25;20375;-70
2024/04/18 00:06:57;;;;;;;;;;;5.60;99.90;;;;;;5525628;25;19931;-69
2024/04/18 00:09:23;;;;;;;;;;;5.50;99.90;;;;;;5526305;25;19950;-70
2024/04/18 00:11:48;;;;;;;;;;;5.60;99.90;;;;;;5525782;25;19952;-70
2024/04/18 00:14:14;;;;;;;;;;;5.60;99.90;;;;;;5525710;25;19956;-70
2024/04/18 00:16:39;;;;;;;;;;;5.50;99.90;;;;;;5525820;25;19967;-70
2024/04/18 00:19:04;;;;;;;;;;;5.50;99.90;;;;;;5525618;25;19991;-70
2024/04/18 00:21:30;;;;;;;;;;;5.50;99.90;;;;;;5525532;25;19928;-70
2024/04/18 00:23:56;;;;;;;;;;;5.40;99.90;;;;;;5525757;25;19928;-70
2024/04/18 00:26:21;;;;;;;;;;;5.50;99.90;;;;;;5525672;25;20370;-69
2024/04/18 00:28:46;;;;;;;;;;;5.60;99.90;;;;;;5525629;25;19928;-70
2024/04/18 00:31:12;;;;;;;;;;;5.60;99.90;;;;;;5524783;25;19935;-70
2024/04/18 00:33:37;;;;;;;;;;;5.60;99.90;;;;;;5525275;25;20709;-70
2024/04/18 00:36:06;;;;;;;;;;;5.60;99.90;;;;;;5525398;26;19928;-69
2024/04/18 00:38:32;;;;;;;;;;;5.60;99.90;;;;;;5525365;25;20302;-70
2024/04/18 00:40:58;;;;;;;;;;;5.60;99.90;;;;;;5525569;25;19961;-70
2024/04/18 00:43:23;;;;;;;;;;;5.70;99.90;;;;;;5525276;25;19993;-69
2024/04/18 00:45:49;;;;;;;;;;;5.60;99.90;;;;;;5525332;25;19939;-70
2024/04/18 00:48:14;;;;;;;;;;;5.60;99.90;;;;;;5525064;25;20262;-70
2024/04/18 00:50:40;;;;;;;;;;;5.70;99.90;;;;;;5524699;25;19935;-70
2024/04/18 00:53:06;;;;;;;;;;;5.70;99.90;;;;;;5523815;25;19975;-71
2024/04/18 00:55:33;;;;;;;;;;;5.80;99.90;;;;;;5525172;25;19927;-70
2024/04/18 00:57:58;;;;;;;;;;;5.80;99.90;;;;;;5524970;25;20300;-70
2024/04/18 01:00:24;;;;;;;;;;;5.90;99.90;;;;;;5524824;25;19934;-70
2024/04/18 01:02:49;;;;;;;;;;;5.90;99.90;;;;;;5525076;25;19927;-69
2024/04/18 01:05:15;;;;;;;;;;;5.90;99.90;;;;;;5525196;25;20268;-70
2024/04/18 01:07:41;;;;;;;;;;;5.80;99.90;;;;;;5525212;25;19927;-70
2024/04/18 01:10:06;;;;;;;;;;;5.80;99.90;;;;;;5524514;25;19931;-71
2024/04/18 01:12:32;;;;;;;;;;;5.90;99.90;;;;;;5524865;25;19973;-70
2024/04/18 01:14:57;;;;;;;;;;;5.90;99.90;;;;;;5524856;25;19938;-70
2024/04/18 01:17:23;;;;;;;;;;;5.90;99.90;;;;;;5524543;25;20003;-70
2024/04/18 01:19:48;;;;;;;;;;;5.80;99.90;;;;;;5524815;25;19928;-71
2024/04/18 01:22:14;;;;;;;;;;;5.70;99.90;;;;;;5524430;26;19935;-70
2024/04/18 01:24:40;;;;;;;;;;;5.70;99.90;;;;;;5524315;25;19928;-70
2024/04/18 01:27:05;;;;;;;;;;;5.60;99.90;;;;;;5524820;25;19932;-70
2024/04/18 01:29:30;;;;;;;;;;;5.60;99.90;;;;;;5524297;25;20274;-70
2024/04/18 01:31:56;;;;;;;;;;;5.60;99.90;;;;;;5524164;25;20020;-70
2024/04/18 01:34:21;;;;;;;;;;;5.50;99.90;;;;;;5524069;25;19934;-70
2024/04/18 01:36:48;;;;;;;;;;;5.60;99.90;;;;;;5524465;25;19928;-70
2024/04/18 01:39:13;;;;;;;;;;;5.50;99.90;;;;;;5524441;25;19934;-70
2024/04/18 01:41:39;;;;;;;;;;;5.50;99.90;;;;;;5523962;25;19927;-71
2024/04/18 01:44:06;;;;;;;;;;;5.50;99.90;;;;;;5524447;25;20380;-68
2024/04/18 01:46:32;;;;;;;;;;;5.60;99.90;;;;;;5522047;26;20370;-68
2024/04/18 01:48:57;;;;;;;;;;;5.60;99.90;;;;;;5524355;25;19927;-69
2024/04/18 01:51:23;;;;;;;;;;;5.60;99.90;;;;;;5523891;25;19927;-68
2024/04/18 01:53:48;;;;;;;;;;;5.60;99.90;;;;;;5523829;25;19934;-68
2024/04/18 01:56:14;;;;;;;;;;;5.50;99.90;;;;;;5524106;25;19927;-69
2024/04/18 01:58:39;;;;;;;;;;;5.50;99.90;;;;;;5523637;25;19976;-70
2024/04/18 02:01:05;;;;;;;;;;;5.40;99.90;;;;;;5523482;25;20691;-69
2024/04/18 02:03:30;;;;;;;;;;;5.40;99.90;;;;;;5524111;25;19928;-70
2024/04/18 02:05:56;;;;;;;;;;;5.50;99.90;;;;;;5527007;25;19934;-69
2024/04/18 02:08:21;;;;;;;;;;;5.40;99.90;;;;;;5527924;25;20371;-69
2024/04/18 02:10:48;;;;;;;;;;;5.40;99.90;;;;;;5527039;25;19931;-68
2024/04/18 02:13:13;;;;;;;;;;;5.40;99.90;;;;;;5527762;25;20291;-73
2024/04/18 02:15:39;;;;;;;;;;;5.40;99.90;;;;;;5527448;25;19931;-68
2024/04/18 02:18:04;;;;;;;;;;;5.40;99.90;;;;;;5527672;25;19938;-68
2024/04/18 02:20:30;;;;;;;;;;;5.40;99.90;;;;;;5527236;25;20005;-68
2024/04/18 02:22:55;;;;;;;;;;;5.40;99.90;;;;;;5527692;25;19927;-68
2024/04/18 02:25:21;;;;;;;;;;;5.30;99.90;;;;;;5527580;25;20004;-68
2024/04/18 02:27:46;;;;;;;;;;;5.30;99.90;;;;;;5527421;25;20369;-70
2024/04/18 02:30:12;;;;;;;;;;;5.30;99.90;;;;;;5526863;25;19938;-69
2024/04/18 02:32:38;;;;;;;;;;;5.30;99.90;;;;;;5527216;25;20374;-69
2024/04/18 02:35:03;;;;;;;;;;;5.30;99.90;;;;;;5527509;25;19927;-69
2024/04/18 02:37:29;;;;;;;;;;;5.30;99.90;;;;;;5527261;25;19934;-69
2024/04/18 02:39:55;;;;;;;;;;;5.30;99.90;;;;;;5526781;25;19928;-70
2024/04/18 02:42:21;;;;;;;;;;;5.30;99.90;;;;;;5527369;25;19934;-70
2024/04/18 02:44:46;;;;;;;;;;;5.30;99.90;;;;;;5525086;26;19934;-69
2024/04/18 02:47:12;;;;;;;;;;;5.30;99.90;;;;;;5527344;25;19950;-69
2024/04/18 02:49:37;;;;;;;;;;;5.30;99.90;;;;;;5527093;25;19927;-70
2024/04/18 02:52:03;;;;;;;;;;;5.30;99.90;;;;;;5526902;25;20403;-70
2024/04/18 02:54:29;;;;;;;;;;;5.30;99.90;;;;;;5526968;25;19935;-70
2024/04/18 02:56:54;;;;;;;;;;;5.30;99.90;;;;;;5526698;25;19935;-70
2024/04/18 02:59:20;;;;;;;;;;;5.30;99.90;;;;;;5526608;25;19942;-70
2024/04/18 03:01:45;;;;;;;;;;;5.40;99.90;;;;;;5525844;25;20383;-70
2024/04/18 03:04:11;;;;;;;;;;;5.40;99.90;;;;;;5527024;25;19927;-71
2024/04/18 03:06:36;;;;;;;;;;;5.40;99.90;;;;;;5526395;25;20375;-72
2024/04/18 03:09:02;;;;;;;;;;;5.40;99.90;;;;;;5526935;25;19927;-72
2024/04/18 03:11:27;;;;;;;;;;;5.50;99.90;;;;;;5526371;25;19995;-71
2024/04/18 03:13:53;;;;;;;;;;;5.50;99.90;;;;;;5526653;25;19934;-70
2024/04/18 03:16:18;;;;;;;;;;;5.50;99.90;;;;;;5525826;25;20431;-72
2024/04/18 03:18:44;;;;;;;;;;;5.50;99.90;;;;;;5526626;25;19927;-70
2024/04/18 03:21:10;;;;;;;;;;;5.50;99.90;;;;;;5526189;25;20299;-70
2024/04/18 03:23:36;;;;;;;;;;;5.60;99.90;;;;;;5526489;25;19927;-70
2024/04/18 03:26:01;;;;;;;;;;;5.50;99.90;;;;;;5526670;25;19934;-69
2024/04/18 03:28:27;;;;;;;;;;;5.50;99.90;;;;;;5526511;25;19927;-70
2024/04/18 03:30:52;;;;;;;;;;;5.50;99.90;;;;;;5525942;25;19931;-68
2024/04/18 03:33:18;;;;;;;;;;;5.50;99.90;;;;;;5526619;25;19928;-68
2024/04/18 03:35:43;;;;;;;;;;;5.50;99.90;;;;;;5526273;25;19928;-68
2024/04/18 03:38:09;;;;;;;;;;;5.50;99.90;;;;;;5526549;25;19928;-71
2024/04/18 03:40:35;;;;;;;;;;;5.40;99.90;;;;;;5526138;25;19928;-70
2024/04/18 03:43:00;;;;;;;;;;;5.40;99.90;;;;;;5526490;25;19934;-70
2024/04/18 03:45:26;;;;;;;;;;;5.40;99.90;;;;;;5526336;25;19928;-70
2024/04/18 03:47:52;;;;;;;;;;;5.40;99.90;;;;;;5526357;25;19955;-70
2024/04/18 03:50:17;;;;;;;;;;;5.50;99.90;;;;;;5525881;25;20375;-70
2024/04/18 03:52:43;;;;;;;;;;;5.50;99.90;;;;;;5526087;25;19995;-70
2024/04/18 03:55:09;;;;;;;;;;;5.40;99.90;;;;;;5526347;25;20000;-70
2024/04/18 03:57:35;;;;;;;;;;;5.40;99.90;;;;;;5526244;25;20371;-70
2024/04/18 04:00:00;;;;;;;;;;;5.40;99.90;;;;;;5525499;25;19928;-70
2024/04/18 04:02:26;;;;;;;;;;;5.40;99.90;;;;;;5526219;25;19955;-70
2024/04/18 04:04:53;;;;;;;;;;;5.40;99.90;;;;;;5526061;25;19927;-70
2024/04/18 04:07:19;;;;;;;;;;;5.40;99.90;;;;;;5526253;25;20363;-70
2024/04/18 04:09:45;;;;;;;;;;;5.40;99.90;;;;;;5525686;25;19928;-70
2024/04/18 04:12:11;;;;;;;;;;;5.40;99.90;;;;;;5525042;25;19935;-70
2024/04/18 04:14:36;;;;;;;;;;;5.40;99.90;;;;;;5525928;25;19963;-70
2024/04/18 04:17:02;;;;;;;;;;;5.40;99.90;;;;;;5525394;25;19927;-72
2024/04/18 04:19:27;;;;;;;;;;;5.30;99.90;;;;;;5525889;25;20272;-68
2024/04/18 04:21:53;;;;;;;;;;;5.40;99.90;;;;;;5525458;25;19995;-68
2024/04/18 04:24:18;;;;;;;;;;;5.40;99.90;;;;;;5525795;25;20378;-69
2024/04/18 04:26:44;;;;;;;;;;;5.50;99.90;;;;;;5525696;25;19934;-68
2024/04/18 04:29:09;;;;;;;;;;;5.50;99.90;;;;;;5524000;25;19938;-69
2024/04/18 04:31:35;;;;;;;;;;;5.50;99.90;;;;;;5525292;25;20003;-70
2024/04/18 04:34:00;;;;;;;;;;;5.40;99.90;;;;;;5525378;25;20019;-69
2024/04/18 04:36:26;;;;;;;;;;;5.40;99.90;;;;;;5525484;25;19928;-69
2024/04/18 04:38:51;;;;;;;;;;;5.30;99.90;;;;;;5525631;25;20326;-70
2024/04/18 04:41:17;;;;;;;;;;;5.30;99.90;;;;;;5524916;25;19930;-69
2024/04/18 04:43:42;;;;;;;;;;;5.40;99.90;;;;;;5525532;25;19995;-69
2024/04/18 04:46:08;;;;;;;;;;;5.40;99.90;;;;;;5525441;25;19927;-69
2024/04/18 04:48:33;;;;;;;;;;;5.50;99.90;;;;;;5525413;25;19935;-70
2024/04/18 04:51:00;;;;;;;;;;;5.50;99.90;;;;;;5525092;25;20339;-70
2024/04/18 04:53:26;;;;;;;;;;;5.50;99.90;;;;;;5525508;25;19938;-70
2024/04/18 04:55:52;;;;;;;;;;;5.60;99.90;;;;;;5525452;25;19927;-70
2024/04/18 04:58:18;;;;;;;;;;;5.50;99.90;;;;;;5525285;25;19934;-70
2024/04/18 05:00:43;;;;;;;;;;;5.50;99.90;;;;;;5522613;25;19940;-70
2024/04/18 05:03:08;;;;;;;;;;;5.50;99.90;;;;;;5525188;25;19927;-70
2024/04/18 05:05:34;;;;;;;;;;;5.40;99.90;;;;;;5524807;25;19933;-70
2024/04/18 05:07:59;;;;;;;;;;;5.50;99.90;;;;;;5525333;25;20020;-71
2024/04/18 05:10:25;;;;;;;;;;;5.50;99.90;;;;;;5524364;25;19927;-72
2024/04/18 05:12:51;;;;;;;;;;;5.50;99.90;;;;;;5524906;25;19931;-70
2024/04/18 05:15:16;;;;;;;;;;;5.50;99.90;;;;;;5524821;25;19993;-72
2024/04/18 05:17:42;;;;;;;;;;;5.40;99.90;;;;;;5524837;25;19927;-71
2024/04/18 05:20:08;;;;;;;;;;;5.30;99.90;;;;;;5524439;25;19934;-71
2024/04/18 05:22:33;;;;;;;;;;;5.40;99.90;;;;;;5525172;25;19968;-71
2024/04/18 05:24:59;;;;;;;;;;;5.40;99.90;;;;;;5524692;25;19935;-68
2024/04/18 05:27:24;;;;;;;;;;;5.50;99.90;;;;;;5524850;25;19979;-71
2024/04/18 05:32:34;;;;;;;;;;;5.50;99.90;;;;;;5524398;26;19996;-70
2024/04/18 05:34:59;;;;;;;;;;;5.70;99.90;;;;;;5524505;25;19956;-69
2024/04/18 05:37:25;;;;;;;;;;;5.70;99.90;;;;;;5524427;25;20363;-70
2024/04/18 05:39:51;;;;;;;;;;;5.70;99.90;;;;;;5525918;25;19939;-70
2024/04/18 05:42:16;;;;;;;;;;;5.80;99.90;;;;;;5527783;25;20340;-69
2024/04/18 05:44:42;;;;;;;;;;;5.80;99.90;;;;;;5528121;25;20282;-70
2024/04/18 05:47:08;;;;;;;;;;;5.90;99.90;;;;;;5527914;25;19939;-70
2024/04/18 05:49:33;;;;;;;;;;;6.00;99.90;;;;;;5528012;25;19927;-70
2024/04/18 05:51:59;;;;;;;;;;;5.90;99.90;;;;;;5527742;25;19933;-70
2024/04/18 05:54:24;;;;;;;;;;;5.90;99.90;;;;;;5527969;25;20329;-70
2024/04/18 05:56:50;;;;;;;;;;;5.80;99.90;;;;;;5527977;25;19935;-70
2024/04/18 05:59:15;;;;;;;;;;;5.80;99.90;;;;;;5527812;25;19934;-70
2024/04/18 06:01:41;;;;;;;;;;;5.80;99.90;;;;;;5527500;25;19939;-70
2024/04/18 06:04:06;;;;;;;;;;;5.80;99.90;;;;;;5527639;25;20280;-70
2024/04/18 06:06:33;;;;;;;;;;;5.70;99.90;;;;;;5527795;25;19928;-69
2024/04/18 06:08:59;;;;;;;;;;;5.70;99.90;;;;;;5527847;25;19935;-70
2024/04/18 06:11:35;;;;;;;;;;;5.60;99.90;;;;;;5527348;25;19934;-71
2024/04/18 06:14:04;;;;;;;;;;;5.60;99.90;;;;;;5528144;25;19927;-70
2024/04/18 06:16:32;;;;;;;;;;;5.50;99.90;;;;;;5527697;25;19931;-69
2024/04/18 06:18:57;;;;;;;;;;;5.60;99.90;;;;;;5527640;25;19927;-69
2024/04/18 06:21:23;;;;;;;;;;;5.70;99.90;;;;;;5527122;25;19935;-70
2024/04/18 06:23:48;;;;;;;;;;;5.70;99.90;;;;;;5527592;25;19934;-70
2024/04/18 06:26:14;;;;;;;;;;;5.80;99.90;;;;;;5527503;25;19939;-69
2024/04/18 06:28:40;;;;;;;;;;;5.80;99.90;;;;;;5527615;25;20642;-68
2024/04/18 06:31:05;;;;;;;;;;;5.80;99.90;;;;;;5526990;25;19995;-69
2024/04/18 06:33:31;;;;;;;;;;;5.90;99.90;;;;;;5527259;25;19937;-70
2024/04/18 06:35:58;;;;;;;;;;;5.90;99.90;;;;;;5527226;25;19927;-69
2024/04/18 06:38:23;;;;;;;;;;;6.00;99.90;;;;;;5527384;25;19935;-72
2024/04/18 06:40:48;;;;;;;;;;;6.00;99.90;;;;;;5526984;25;20306;-71
2024/04/18 06:43:14;;;;;;;;;;;6.00;99.90;;;;;;5527641;25;20033;-70
2024/04/18 06:45:39;;;;;;;;;;;6.00;99.90;;;;;;5527627;25;19959;-70
2024/04/18 06:48:07;;;;;;;;;;;6.00;99.90;;;;;;5527335;26;19944;-70
2024/04/18 06:50:32;;;;;;;;;;;6.00;99.90;;;;;;5526169;25;19935;-70
2024/04/18 06:52:58;;;;;;;;;;;6.00;99.90;;;;;;5526637;25;19935;-72
2024/04/18 06:55:23;;;;;;;;;;;6.00;99.90;;;;;;5527332;25;19927;-72
2024/04/18 06:57:49;;;;;;;;;;;6.10;99.90;;;;;;5527399;25;19927;-71
2024/04/18 07:00:14;;;;;;;;;;;6.20;99.90;;;;;;5526816;25;20274;-69
2024/04/18 07:02:40;;;;;;;;;;;6.30;99.90;;;;;;5527314;25;20048;-70
2024/04/18 07:05:05;;;;;;;;;;;6.30;99.90;;;;;;5515414;25;19928;-69
2024/04/18 07:07:31;;;;;;;;;;;6.40;99.90;;;;;;5508142;26;19928;-70
2024/04/18 07:09:56;;;;;;;;;;;6.30;99.90;;;;;;5513757;25;19938;-70
2024/04/18 07:12:22;;;;;;;;;;;6.40;99.90;;;;;;5526751;26;19939;-70
2024/04/18 07:14:47;;;;;;;;;;;6.60;99.90;;;;;;5526514;25;19927;-70
2024/04/18 07:17:13;;;;;;;;;;;6.70;99.90;;;;;;5526013;26;19928;-70
2024/04/18 07:19:38;;;;;;;;;;;6.80;99.90;;;;;;5526073;25;19991;-68
2024/04/18 07:22:04;;;;;;;;;;;6.90;99.90;;;;;;5526284;25;19927;-68
2024/04/18 07:24:30;;;;;;;;;;;7.00;99.90;;;;;;5526313;25;19934;-70
2024/04/18 07:26:55;;;;;;;;;;;7.10;99.90;;;;;;5526712;25;19928;-70
2024/04/18 07:29:21;;;;;;;;;;;7.20;99.90;;;;;;5526405;26;19928;-70
2024/04/18 07:31:46;;;;;;;;;;;7.20;99.90;;;;;;5526538;25;19931;-70
2024/04/18 07:34:15;;;;;;;;;;;7.20;99.90;;;;;;5526575;25;19934;-70
2024/04/18 07:36:43;;;;;;;;;;;7.30;99.90;;;;;;5526675;25;19933;-70
2024/04/18 07:39:08;;;;;;;;;;;7.30;99.90;;;;;;5526423;25;19939;-70
2024/04/18 07:41:34;;;;;;;;;;;7.40;99.90;;;;;;5526040;25;19927;-70
2024/04/18 07:43:59;;;;;;;;;;;7.60;99.90;;;;;;5526451;25;19927;-71
2024/04/18 07:46:30;;;;;;;;;;;7.80;99.90;;;;;;5522748;26;19940;-70
2024/04/18 07:48:55;;;;;;;;;;;7.80;91.80;;;;;;5526292;25;20616;-69
2024/04/18 07:51:21;;;;;;;;;;;8.00;85.30;;;;;;5524059;26;19928;-73
2024/04/18 07:53:47;;;;;;;;;;;8.00;68.80;;;;;;5526456;25;20439;-71
2024/04/18 07:56:12;;;;;;;;;;;8.00;60.10;;;;;;5526660;25;19935;-70
2024/04/18 07:58:38;;;;;;;;;;;8.10;60.00;;;;;;5526295;25;20001;-70
2024/04/18 08:01:04;;;;;;;;;;;8.20;53.90;;;;;;5525850;26;19934;-69
2024/04/18 08:03:29;;;;;;;;;;;8.10;48.30;;;;;;5526040;25;19927;-69
2024/04/18 08:05:55;;;;;;;;;;;8.20;48.00;;;;;;5526232;25;19934;-69
2024/04/18 08:08:20;;;;;;;;;;;8.30;47.40;;;;;;5526205;25;19934;-69
2024/04/18 08:10:46;;;;;;;;;;;8.10;48.60;;;;;;5525527;26;19938;-70
2024/04/18 08:13:11;;;;;;;;;;;7.90;44.10;;;;;;5526012;25;20423;-69
2024/04/18 08:15:39;;;;;;;;;;;7.80;45.00;;;;;;5525938;25;19934;-69
2024/04/18 08:18:05;;;;;;;;;;;7.90;47.70;;;;;;5525731;25;19994;-69
2024/04/18 08:20:30;;;;;;;;;;;8.00;46.90;;;;;;5525605;25;19939;-70
2024/04/18 08:22:55;;;;;;;;;;;8.10;51.20;;;;;;5525767;25;20445;-69
2024/04/18 08:25:21;;;;;;;;;;;8.30;46.80;;;;;;5525616;26;19934;-70
2024/04/18 08:27:46;;;;;;;;;;;8.50;44.90;;;;;;5525781;26;19955;-69
2024/04/18 08:30:12;;;;;;;;;;;8.70;42.70;;;;;;5525202;26;19964;-69
2024/04/18 08:32:37;;;;;;;;;;;8.90;41.10;;;;;;5525536;25;19928;-69
2024/04/18 08:35:03;;;;;;;;;;;9.20;41.50;;;;;;5525627;25;19937;-69
2024/04/18 08:37:28;;;;;;;;;;;9.30;22.80;;;;;;5525578;25;19939;-69
2024/04/18 08:39:54;;;;;;;;;;;9.60;21.90;;;;;;5525404;25;19935;-69
2024/04/18 08:42:22;;;;;;;;;;;9.80;15.10;;;;;;5525056;26;19927;-69
2024/04/18 08:44:51;;;;;;;;;;;9.80;11.60;;;;;;5525409;25;19934;-69
2024/04/18 08:47:17;;;;;;;;;;;9.30;1.00;;;;;;5525645;25;19927;-70
2024/04/18 08:49:44;;;;;;;;;;;9.10;4.80;;;;;;5525312;25;20375;-68
2024/04/18 08:52:11;;;;;;;;;;;8.90;10.10;;;;;;5524994;25;19927;-68
2024/04/18 08:54:36;;;;;;;;;;;8.50;11.00;;;;;;5525429;25;19928;-72
2024/04/18 08:57:04;;;;;;;;;;;8.60;18.30;;;;;;5525328;25;19934;-71
2024/04/18 08:59:29;;;;;;;;;;;8.70;9.90;;;;;;5525207;25;19995;-71
2024/04/18 09:01:55;;;;;;;;;;;8.80;12.80;;;;;;5525061;25;19935;-71
2024/04/18 09:04:20;;;;;;;;;;;8.70;6.00;;;;;;5525237;25;19934;-72
2024/04/18 09:06:46;;;;;;;;;;;8.70;13.00;;;;;;5524975;26;19927;-71
2024/04/18 09:09:17;;;;;;;;;;;9.10;16.80;;;;;;5524917;25;19935;-71
2024/04/18 09:11:44;;;;;;;;;;;9.10;12.20;;;;;;5524740;25;19934;-72
2024/04/18 09:14:09;;;;;;;;;;;9.00;2.50;;;;;;5524006;25;20372;-71
2024/04/18 09:16:35;;;;;;;;;;;8.80;1.00;;;;;;5524922;25;20021;-72
2024/04/18 09:19:00;;;;;;;;;;;8.60;1.70;;;;;;5524926;26;19947;-71
2024/04/18 09:21:29;;;;;;;;;;;8.70;1.00;;;;;;5522544;26;19927;-71
2024/04/18 09:23:56;;;;;;;;;;;8.80;4.40;;;;;;5524587;25;19928;-72
2024/04/18 09:26:25;;;;;;;;;;;9.10;1.00;;;;;;5524603;25;19928;-72
2024/04/18 09:28:50;;;;;;;;;;;9.20;1.00;;;;;;5524745;25;19936;-71
2024/04/18 09:31:19;;;;;;;;;;;9.30;1.00;;;;;;5524169;25;19995;-71
2024/04/18 09:33:46;;;;;;;;;;;9.30;1.00;;;;;;5524845;25;20267;-72
2024/04/18 09:36:13;;;;;;;;;;;9.20;1.00;;;;;;5524472;25;20382;-71
2024/04/18 09:38:39;;;;;;;;;;;9.20;1.00;;;;;;5524701;25;19996;-71
2024/04/18 09:41:10;;;;;;;;;;;9.30;1.00;;;;;;5524138;25;20268;-72
2024/04/18 09:43:44;;;;;;;;;;;9.50;1.00;;;;;;5524662;25;19956;-71
2024/04/18 09:46:09;;;;;;;;;;;9.50;1.00;;;;;;5524356;25;20611;-72
2024/04/18 09:48:35;;;;;;;;;;;9.60;1.00;;;;;;5524283;25;19927;-71
2024/04/18 09:51:02;;;;;;;;;;;9.70;1.00;;;;;;5523814;25;19934;-71
2024/04/18 09:53:29;;;;;;;;;;;9.80;1.00;;;;;;5524398;25;19945;-72
2024/04/18 09:55:56;;;;;;;;;;;10.10;1.00;;;;;;5524175;25;19927;-71
2024/04/18 09:58:22;;;;;;;;;;;9.90;1.00;;;;;;5524241;25;19928;-70
2024/04/18 10:00:48;;;;;;;;;;;10.10;1.00;;;;;;5523717;25;19928;-72
2024/04/18 10:03:15;;;;;;;;;;;10.30;1.00;;;;;;5524277;25;19960;-72
2024/04/18 10:05:44;;;;;;;;;;;10.20;1.00;;;;;;5523917;25;19935;-71
2024/04/18 10:08:10;;;;;;;;;;;10.10;1.00;;;;;;5524114;25;19935;-68
2024/04/18 10:10:36;;;;;;;;;;;10.00;1.00;;;;;;5523315;25;19928;-69
2024/04/18 10:13:03;;;;;;;;;;;9.90;1.00;;;;;;5523929;25;19935;-69
2024/04/18 10:15:29;;;;;;;;;;;9.90;1.00;;;;;;5523959;25;19995;-69
2024/04/18 10:17:55;;;;;;;;;;;10.00;1.00;;;;;;5523794;25;19928;-69
2024/04/18 10:20:25;;;;;;;;;;;10.10;1.00;;;;;;5523205;25;20256;-69
2024/04/18 10:22:54;;;;;;;;;;;10.50;1.00;;;;;;5523756;25;19931;-69
2024/04/18 10:25:22;;;;;;;;;;;10.90;1.00;;;;;;5523469;25;19938;-69
2024/04/18 10:27:47;;;;;;;;;;;10.70;1.00;;;;;;5526633;25;20322;-71
2024/04/18 10:30:14;;;;;;;;;;;10.70;1.00;;;;;;5515607;25;19935;-71
2024/04/18 10:32:41;;;;;;;;;;;11.00;1.00;;;;;;5521422;25;20342;-70
2024/04/18 10:35:06;;;;;;;;;;;11.30;1.00;;;;;;5527667;25;20318;-70
2024/04/18 10:37:32;;;;;;;;;;;11.60;1.00;;;;;;5527052;25;19935;-71
2024/04/18 10:39:58;;;;;;;;;;;11.90;1.00;;;;;;5506042;26;19930;-70
2024/04/18 10:42:24;;;;;;;;;;;12.30;1.00;;;;;;5496381;26;19935;-70
2024/04/18 10:44:50;;;;;;;;;;;12.00;1.00;;;;;;5532041;25;20405;-69
2024/04/18 10:47:21;;;;;;;;;;;11.40;1.00;;;;;;5530214;25;19927;-70
2024/04/18 10:49:47;;;;;;;;;;;11.20;1.00;;;;;;5543972;25;19938;-70
2024/04/18 10:52:16;;;;;;;;;;;11.40;1.00;;;;;;5552469;25;20006;-69
2024/04/18 10:54:41;;;;;;;;;;;11.90;1.00;;;;;;5535970;25;19934;-71
2024/04/18 10:57:07;;;;;;;;;;;12.40;1.00;;;;;;5526831;25;19928;-71
2024/04/18 10:59:35;;;;;;;;;;;12.30;1.00;;;;;;5532528;25;19935;-72
2024/04/18 11:02:10;;;;;;;;;;;12.00;1.00;;;;;;5525913;25;19983;-70
2024/04/18 11:04:36;;;;;;;;;;;11.70;1.00;;;;;;5526334;25;19927;-70
2024/04/18 11:07:02;;;;;;;;;;;11.70;1.00;;;;;;5539850;25;19959;-70
2024/04/18 11:09:27;;;;;;;;;;;11.20;1.00;;;;;;5525288;25;20281;-70
2024/04/18 11:11:54;;;;;;;;;;;11.40;1.00;;;;;;5526217;25;19935;-71
2024/04/18 11:14:21;;;;;;;;;;;11.70;1.00;;;;;;5526758;25;19996;-69
2024/04/18 11:16:54;;;;;;;;;;;12.20;1.00;;;;;;5525985;25;19956;-70
2024/04/18 11:19:20;;;;;;;;;;;12.90;1.00;;;;;;5526234;25;19939;-70
2024/04/18 11:21:47;;;;;;;;;;;13.20;1.00;;;;;;5520558;25;20011;-69
2024/04/18 11:24:12;;;;;;;;;;;13.10;1.00;;;;;;5537985;25;20016;-70
2024/04/18 11:26:38;;;;;;;;;;;12.60;1.00;;;;;;5520324;25;20287;-70
2024/04/18 11:29:03;;;;;;;;;;;12.10;1.00;;;;;;5526431;25;19935;-71
2024/04/18 11:31:30;;;;;;;;;;;11.70;1.00;;;;;;5525104;25;19967;-71
2024/04/18 11:33:56;;;;;;;;;;;11.30;1.00;;;;;;5525353;25;20010;-71
2024/04/18 11:36:21;;;;;;;;;;;11.30;1.00;;;;;;5520553;25;19927;-71
2024/04/18 11:38:47;;;;;;;;;;;11.50;1.00;;;;;;5525121;25;19938;-70
2024/04/18 11:41:12;;;;;;;;;;;12.20;1.00;;;;;;5525320;25;20271;-70
2024/04/18 11:43:38;;;;;;;;;;;12.40;1.00;;;;;;5525221;25;19959;-71
2024/04/18 11:46:03;;;;;;;;;;;12.20;1.00;;;;;;5524403;25;19992;-70
2024/04/18 11:48:29;;;;;;;;;;;11.90;1.00;;;;;;5524722;25;19927;-71
2024/04/18 11:50:54;;;;;;;;;;;11.60;1.00;;;;;;5523763;25;19943;-70
2024/04/18 11:53:19;;;;;;;;;;;11.40;1.00;;;;;;5525171;25;19927;-71
2024/04/18 11:55:45;;;;;;;;;;;11.90;1.00;;;;;;5525534;25;20003;-71
2024/04/18 11:58:10;;;;;;;;;;;12.80;1.00;;;;;;5535384;25;20359;-70
2024/04/18 12:00:36;;;;;;;;;;;13.20;1.00;;;;;;5524704;25;20283;-70
2024/04/18 12:03:02;;;;;;;;;;;14.10;1.00;;;;;;5525078;25;19927;-71
2024/04/18 12:05:27;;;;;;;;;;;15.10;1.00;;;;;;5524862;25;19935;-71
2024/04/18 12:07:53;;;;;;;;;;;15.80;1.00;;;;;;5525330;25;19927;-70
2024/04/18 12:10:19;;;;;;;;;;;15.80;1.00;;;;;;5524512;25;19928;-71
2024/04/18 12:12:44;;;;;;;;;;;15.40;1.00;;;;;;5524206;25;20373;-71
2024/04/18 12:15:10;;;;;;;;;;;15.20;1.00;;;;;;5525186;25;19950;-71
2024/04/18 12:17:38;;;;;;;;;;;15.10;1.00;;;;;;5525192;25;19955;-71
2024/04/18 12:20:04;;;;;;;;;;;15.50;1.00;;;;;;5523722;25;19951;-71
2024/04/18 12:22:29;;;;;;;;;;;15.50;1.00;;;;;;5518097;25;19938;-71
2024/04/18 12:24:55;;;;;;;;;;;15.50;1.00;;;;;;5524795;25;19951;-71
2024/04/18 12:27:21;;;;;;;;;;;15.10;1.00;;;;;;5524848;25;19927;-71
2024/04/18 12:29:49;;;;;;;;;;;14.30;1.00;;;;;;5524921;25;19927;-71
2024/04/18 12:32:17;;;;;;;;;;;14.50;1.00;;;;;;5524309;25;19927;-71
2024/04/18 12:34:42;;;;;;;;;;;15.50;1.00;;;;;;5525061;25;19928;-71
2024/04/18 12:37:08;;;;;;;;;;;16.10;1.00;;;;;;5525246;25;19928;-71
2024/04/18 12:39:33;;;;;;;;;;;15.30;1.00;;;;;;5525198;25;19934;-70
2024/04/18 12:41:59;;;;;;;;;;;14.40;1.00;;;;;;5524504;25;19927;-71
2024/04/18 12:44:24;;;;;;;;;;;13.50;1.00;;;;;;5525249;25;19928;-71
2024/04/18 12:46:50;;;;;;;;;;;12.90;1.00;;;;;;5524273;25;19928;-70
2024/04/18 12:49:15;;;;;;;;;;;12.70;1.00;;;;;;5517394;25;19927;-69
2024/04/18 12:51:41;;;;;;;;;;;12.70;1.00;;;;;;5524799;25;19978;-71
2024/04/18 12:54:06;;;;;;;;;;;12.80;1.00;;;;;;5524811;25;19935;-70
2024/04/18 12:56:32;;;;;;;;;;;12.90;1.00;;;;;;5525018;25;19927;-71
2024/04/18 12:58:57;;;;;;;;;;;12.80;1.00;;;;;;5522264;25;19927;-71
2024/04/18 13:01:23;;;;;;;;;;;13.50;1.00;;;;;;5523736;25;19983;-71
2024/04/18 13:03:48;;;;;;;;;;;14.30;1.00;;;;;;5524648;25;19968;-70
2024/04/18 13:06:15;;;;;;;;;;;14.30;1.00;;;;;;5531830;25;19934;-69
2024/04/18 13:08:40;;;;;;;;;;;13.80;1.00;;;;;;5524202;25;20270;-70
2024/04/18 13:11:05;;;;;;;;;;;13.20;1.00;;;;;;5523856;25;19935;-69
2024/04/18 13:13:31;;;;;;;;;;;12.70;1.00;;;;;;5524313;25;19935;-68
2024/04/18 13:15:56;;;;;;;;;;;12.40;1.00;;;;;;5524449;25;19935;-67
2024/04/18 13:18:22;;;;;;;;;;;12.30;1.00;;;;;;5524502;25;20264;-68
2024/04/18 13:20:48;;;;;;;;;;;12.40;1.00;;;;;;5524012;25;19927;-68
2024/04/18 13:23:13;;;;;;;;;;;12.60;1.00;;;;;;5524202;25;19927;-68
2024/04/18 13:25:39;;;;;;;;;;;13.10;1.00;;;;;;5524640;25;20266;-68
2024/04/18 13:28:06;;;;;;;;;;;14.00;1.00;;;;;;5524537;25;19935;-68
2024/04/18 13:30:31;;;;;;;;;;;15.10;1.00;;;;;;5523260;25;19927;-68
2024/04/18 13:32:57;;;;;;;;;;;16.10;1.00;;;;;;5524446;25;20263;-68
2024/04/18 13:35:22;;;;;;;;;;;16.30;1.00;;;;;;5523853;25;19934;-69
2024/04/18 13:37:48;;;;;;;;;;;16.70;1.00;;;;;;5523746;25;20457;-69
2024/04/18 13:40:13;;;;;;;;;;;16.60;1.00;;;;;;5524254;25;20271;-68
2024/04/18 13:42:39;;;;;;;;;;;16.70;1.00;;;;;;5524413;25;19943;-68
2024/04/18 13:45:05;;;;;;;;;;;15.80;1.00;;;;;;5523174;25;19934;-68
2024/04/18 13:47:30;;;;;;;;;;;15.00;1.00;;;;;;5523917;25;19964;-68
2024/04/18 13:49:56;;;;;;;;;;;14.20;1.00;;;;;;5523780;25;19928;-68
2024/04/18 13:52:21;;;;;;;;;;;13.70;1.00;;;;;;5523154;25;19935;-68
2024/04/18 13:54:47;;;;;;;;;;;13.50;1.00;;;;;;5539750;25;20360;-69
2024/04/18 13:57:13;;;;;;;;;;;13.40;1.00;;;;;;5523798;25;19928;-68
2024/04/18 13:59:39;;;;;;;;;;;13.20;1.00;;;;;;5523089;25;19927;-69
2024/04/18 14:02:08;;;;;;;;;;;13.00;1.00;;;;;;5526978;25;19993;-68
2024/04/18 14:04:33;;;;;;;;;;;13.20;1.00;;;;;;5527693;25;19963;-69
2024/04/18 14:06:59;;;;;;;;;;;13.30;1.00;;;;;;5526873;25;19938;-69
2024/04/18 14:09:33;;;;;;;;;;;13.20;1.00;;;;;;5527163;25;19927;-69
2024/04/18 14:11:59;;;;;;;;;;;13.10;1.00;;;;;;5527231;25;19933;-70
2024/04/18 14:14:24;;;;;;;;;;;12.80;1.00;;;;;;5526827;25;20387;-69
2024/04/18 14:19:34;;;;;;;;;;;12.60;1.00;;;;;;5527395;25;19935;-69
2024/04/18 14:21:59;;;;;;;;;;;12.40;1.00;;;;;;5526143;25;19951;-69
2024/04/18 14:24:25;;;;;;;;;;;12.30;1.00;;;;;;5527276;25;19934;-68
2024/04/18 14:26:50;;;;;;;;;;;12.30;1.00;;;;;;5527134;25;19927;-69
2024/04/18 14:29:16;;;;;;;;;;;12.40;1.00;;;;;;5526208;25;19927;-68